Time;durP1;ratioP1;P1;durP2;ratioP2;P2;SDS_P1;SDS_P2;PMS_P1;PMS_P2;Temp;Humidity;BMP_temperature;BMP_pressure;BME280_temperature;BME280_humidity;BME280_pressure;Samples;Min_cycle;Max_cycle;Signal;HPM_P1;HPM_P2
2021/04/28 00:01:18;;;;;;;16.37;9.53;;;12.10;79.90;;;;;;1779576;81;21142;-66
2021/04/28 00:03:45;;;;;;;11.65;8.33;;;12.20;80.50;;;;;;1779265;80;21716;-68
2021/04/28 00:06:13;;;;;;;15.20;8.58;;;12.10;80.10;;;;;;1779356;80;21691;-68
2021/04/28 00:08:41;;;;;;;12.65;8.08;;;12.20;79.50;;;;;;1779224;81;21294;-69
2021/04/28 00:11:09;;;;;;;16.17;8.83;;;12.20;80.00;;;;;;1779713;81;21563;-68
2021/04/28 00:13:37;;;;;;;13.22;8.35;;;12.10;80.50;;;;;;1779510;81;21180;-68
2021/04/28 00:16:05;;;;;;;11.40;7.90;;;12.10;81.50;;;;;;1779845;80;21157;-68
2021/04/28 00:18:33;;;;;;;13.83;9.08;;;12.10;82.10;;;;;;1779400;80;21237;-69
2021/04/28 00:21:01;;;;;;;13.95;8.98;;;12.00;82.50;;;;;;1779492;80;21122;-68
2021/04/28 00:23:29;;;;;;;15.05;9.53;;;11.90;82.60;;;;;;1779373;80;21635;-68
2021/04/28 00:25:57;;;;;;;13.03;8.65;;;11.90;83.90;;;;;;1779243;80;21706;-69
2021/04/28 00:28:24;;;;;;;14.25;9.78;;;11.90;83.10;;;;;;1779515;80;21141;-69
2021/04/28 00:30:52;;;;;;;15.28;9.98;;;11.90;83.50;;;;;;1779631;80;21556;-69
2021/04/28 00:33:20;;;;;;;21.20;10.80;;;11.90;83.40;;;;;;1779306;81;21710;-69
2021/04/28 00:35:48;;;;;;;15.65;10.48;;;11.90;84.20;;;;;;1779317;80;21177;-68
2021/04/28 00:38:17;;;;;;;18.85;10.20;;;11.70;84.80;;;;;;1778726;80;21308;-67
2021/04/28 00:40:47;;;;;;;19.07;10.15;;;11.60;86.60;;;;;;1779265;80;21154;-67
2021/04/28 00:43:17;;;;;;;17.52;10.50;;;11.50;88.90;;;;;;1779705;81;21173;-67
2021/04/28 00:45:45;;;;;;;17.62;10.28;;;11.50;88.00;;;;;;1779380;80;21579;-69
2021/04/28 00:48:13;;;;;;;17.70;11.18;;;11.50;89.40;;;;;;1779312;80;21733;-69
2021/04/28 00:50:45;;;;;;;16.20;10.32;;;11.40;90.00;;;;;;1779142;81;21166;-67
2021/04/28 00:53:18;;;;;;;17.12;10.28;;;11.40;90.20;;;;;;1779517;81;21701;-68
2021/04/28 00:55:46;;;;;;;16.32;10.68;;;11.40;90.90;;;;;;1779717;81;21526;-68
2021/04/28 00:58:15;;;;;;;18.42;10.13;;;11.40;90.50;;;;;;1779307;80;21284;-68
2021/04/28 01:00:45;;;;;;;18.05;10.38;;;11.40;91.60;;;;;;1779349;81;21315;-68
2021/04/28 01:03:13;;;;;;;17.32;10.72;;;11.40;93.00;;;;;;1779196;80;21155;-68
2021/04/28 01:05:42;;;;;;;16.27;10.28;;;11.40;91.40;;;;;;1779342;80;21299;-68
2021/04/28 01:08:12;;;;;;;15.48;9.83;;;11.40;91.50;;;;;;1779467;80;21596;-67
2021/04/28 01:10:40;;;;;;;14.90;9.25;;;11.50;91.80;;;;;;1779294;80;21271;-68
2021/04/28 01:13:10;;;;;;;13.40;8.53;;;11.50;92.50;;;;;;1779302;81;21695;-68
2021/04/28 01:15:39;;;;;;;14.18;9.00;;;11.50;91.50;;;;;;1779289;81;21299;-68
2021/04/28 01:18:09;;;;;;;14.58;8.98;;;11.40;91.40;;;;;;1778852;80;21288;-68
2021/04/28 01:20:39;;;;;;;15.13;9.50;;;11.50;91.30;;;;;;1779312;81;21215;-68
2021/04/28 01:23:13;;;;;;;13.75;9.30;;;11.50;93.00;;;;;;1779196;80;21304;-68
2021/04/28 01:25:43;;;;;;;16.63;10.97;;;11.50;91.60;;;;;;1779650;81;21300;-68
2021/04/28 01:28:20;;;;;;;16.90;10.80;;;11.40;94.20;;;;;;1779890;80;21279;-67
2021/04/28 01:30:58;;;;;;;15.68;10.68;;;11.40;93.50;;;;;;1779070;80;21694;-67
2021/04/28 01:33:34;;;;;;;16.15;10.85;;;11.50;92.80;;;;;;1779342;80;21130;-67
2021/04/28 01:36:04;;;;;;;15.18;9.63;;;11.40;93.40;;;;;;1779094;80;21722;-67
2021/04/28 01:38:41;;;;;;;16.67;10.55;;;11.30;93.50;;;;;;1779834;81;21134;-68
2021/04/28 01:41:09;;;;;;;;;;;11.30;93.40;;;;;;1782508;80;21153;-68
2021/04/28 01:43:42;;;;;;;14.40;9.60;;;11.20;93.60;;;;;;1779445;80;20139;-67
2021/04/28 01:46:13;;;;;;;15.53;10.58;;;11.20;93.20;;;;;;1779726;81;21099;-68
2021/04/28 01:48:44;;;;;;;17.20;11.35;;;11.10;93.60;;;;;;1779765;81;21145;-68
2021/04/28 01:51:14;;;;;;;13.32;9.63;;;11.10;94.40;;;;;;1780079;80;21142;-68
2021/04/28 01:53:44;;;;;;;17.48;10.50;;;11.10;93.00;;;;;;1779461;80;21141;-68
2021/04/28 01:56:14;;;;;;;16.02;10.45;;;11.00;95.20;;;;;;1779551;80;21145;-68
2021/04/28 01:58:45;;;;;;;16.48;9.65;;;11.10;94.50;;;;;;1779209;80;21280;-68
2021/04/28 02:01:22;;;;;;;14.55;9.93;;;11.00;93.20;;;;;;1779190;80;21174;-68
2021/04/28 02:03:55;;;;;;;14.40;9.90;;;10.90;93.60;;;;;;1779436;80;21754;-68
2021/04/28 02:06:25;;;;;;;14.40;9.63;;;11.00;92.90;;;;;;1757279;80;21156;-69
2021/04/28 02:08:52;;;;;;;15.03;9.73;;;10.90;92.90;;;;;;1787823;80;21287;-68
2021/04/28 02:11:21;;;;;;;16.20;10.18;;;10.90;94.20;;;;;;1787858;80;21146;-68
2021/04/28 02:13:50;;;;;;;17.12;11.15;;;10.80;94.70;;;;;;1787772;80;21316;-69
2021/04/28 02:16:40;;;;;;;16.67;9.73;;;10.80;94.70;;;;;;1787573;80;21126;-68
2021/04/28 02:19:12;;;;;;;20.85;12.45;;;10.80;95.10;;;;;;1787610;80;21125;-68
2021/04/28 02:21:46;;;;;;;16.25;10.53;;;10.80;96.40;;;;;;1787853;80;21302;-69
2021/04/28 02:24:19;;;;;;;14.95;9.45;;;10.70;95.40;;;;;;1786918;80;21295;-69
2021/04/28 02:26:55;;;;;;;15.28;9.68;;;10.70;95.80;;;;;;1787741;80;21168;-68
2021/04/28 02:29:24;;;;;;;17.82;9.35;;;10.80;95.00;;;;;;1787921;80;21272;-68
2021/04/28 02:31:53;;;;;;;17.62;10.75;;;10.80;94.20;;;;;;1787566;80;21137;-68
2021/04/28 02:34:23;;;;;;;16.30;10.40;;;10.80;94.80;;;;;;1787013;80;21137;-69
2021/04/28 02:37:12;;;;;;;17.27;10.50;;;10.80;94.80;;;;;;1785300;80;21153;-68
2021/04/28 02:40:08;;;;;;;14.03;9.90;;;10.80;95.20;;;;;;1787673;80;21165;-68
2021/04/28 02:42:39;;;;;;;14.83;9.03;;;10.90;94.80;;;;;;1787686;80;21157;-68
2021/04/28 02:45:10;;;;;;;12.85;8.20;;;11.00;94.60;;;;;;1757374;80;21146;-68
2021/04/28 02:47:40;;;;;;;12.40;8.55;;;11.00;93.60;;;;;;1787788;80;21172;-68
2021/04/28 02:50:12;;;;;;;13.53;7.70;;;11.10;92.40;;;;;;1788241;80;21136;-68
2021/04/28 02:53:00;;;;;;;12.43;8.28;;;11.20;92.10;;;;;;1788077;80;21552;-68
2021/04/28 02:55:28;;;;;;;12.98;8.23;;;11.10;92.10;;;;;;1788160;80;21189;-69
2021/04/28 02:57:59;;;;;;;11.80;7.85;;;11.20;92.00;;;;;;1787570;80;21594;-69
2021/04/28 03:00:27;;;;;;;11.78;7.53;;;11.10;92.20;;;;;;1787568;80;21555;-69
2021/04/28 03:02:57;;;;;;;11.80;7.58;;;11.10;93.00;;;;;;1787737;80;21262;-69
2021/04/28 03:05:26;;;;;;;13.32;8.43;;;11.00;92.50;;;;;;1787932;80;21176;-69
2021/04/28 03:08:05;;;;;;;10.58;7.03;;;11.10;92.30;;;;;;1787747;80;21734;-69
2021/04/28 03:10:35;;;;;;;11.80;6.75;;;11.10;91.70;;;;;;1787711;80;21275;-69
2021/04/28 03:13:04;;;;;;;11.25;7.35;;;11.00;91.10;;;;;;1787560;80;21173;-69
2021/04/28 03:15:33;;;;;;;11.25;7.17;;;11.00;91.10;;;;;;1787758;80;21575;-69
2021/04/28 03:18:03;;;;;;;11.68;7.67;;;10.90;90.90;;;;;;1787645;80;21144;-69
2021/04/28 03:20:36;;;;;;;11.73;7.72;;;10.90;91.50;;;;;;1787501;80;21149;-69
2021/04/28 03:23:06;;;;;;;12.05;7.47;;;10.90;91.50;;;;;;1787628;80;21299;-69
2021/04/28 03:25:34;;;;;;;11.88;7.47;;;10.80;92.20;;;;;;1788012;80;21173;-68
2021/04/28 03:28:04;;;;;;;11.85;7.35;;;10.70;92.70;;;;;;1787786;80;21283;-68
2021/04/28 03:30:33;;;;;;;9.80;6.60;;;10.70;92.70;;;;;;1787726;80;21152;-69
2021/04/28 03:33:01;;;;;;;10.95;7.33;;;10.60;92.20;;;;;;1787559;80;21154;-69
2021/04/28 03:35:45;;;;;;;10.78;6.75;;;10.60;92.80;;;;;;1787772;80;21719;-69
2021/04/28 03:38:18;;;;;;;10.63;7.67;;;10.60;95.20;;;;;;1781510;80;21141;-70
2021/04/28 03:40:45;;;;;;;10.38;7.22;;;10.60;96.00;;;;;;1787648;80;21157;-70
2021/04/28 03:43:13;;;;;;;10.85;7.05;;;10.60;94.30;;;;;;1787899;80;21158;-71
2021/04/28 03:45:43;;;;;;;9.18;6.15;;;10.60;93.40;;;;;;1787817;80;21288;-70
2021/04/28 03:48:12;;;;;;;10.85;6.50;;;10.60;93.90;;;;;;1787274;80;21149;-70
2021/04/28 03:50:40;;;;;;;9.45;6.05;;;10.60;93.10;;;;;;1787550;80;21164;-70
2021/04/28 03:53:09;;;;;;;9.40;5.97;;;10.70;93.50;;;;;;1787787;80;21291;-69
2021/04/28 03:55:45;;;;;;;9.58;6.22;;;10.60;93.10;;;;;;1787662;80;21117;-69
2021/04/28 03:58:13;;;;;;;9.78;6.62;;;10.60;92.80;;;;;;1787501;80;21165;-69
2021/04/28 04:00:40;;;;;;;9.75;6.00;;;10.60;93.30;;;;;;1787517;80;21152;-69
2021/04/28 04:03:13;;;;;;;9.35;6.20;;;10.50;94.20;;;;;;1786060;80;21242;-70
2021/04/28 04:05:59;;;;;;;9.30;5.65;;;10.50;94.10;;;;;;1787791;80;21146;-71
2021/04/28 04:08:34;;;;;;;9.98;6.35;;;10.50;93.50;;;;;;1787644;80;21129;-70
2021/04/28 04:11:03;;;;;;;9.65;6.35;;;10.60;93.20;;;;;;1787770;80;21290;-70
2021/04/28 04:13:32;;;;;;;9.35;5.75;;;10.50;92.70;;;;;;1787686;80;21149;-70
2021/04/28 04:16:01;;;;;;;8.23;5.50;;;10.60;93.60;;;;;;1787514;80;21145;-70
2021/04/28 04:18:30;;;;;;;8.58;5.75;;;10.70;93.10;;;;;;1787705;80;21696;-69
2021/04/28 04:21:00;;;;;;;7.37;5.08;;;10.70;93.00;;;;;;1787671;80;21531;-70
2021/04/28 04:23:30;;;;;;;7.58;5.50;;;10.80;92.00;;;;;;1787473;80;21142;-69
2021/04/28 04:26:16;;;;;;;10.40;6.35;;;10.90;91.70;;;;;;1785231;80;21148;-70
2021/04/28 04:29:05;;;;;;;10.15;6.20;;;10.90;92.00;;;;;;1787619;80;21137;-67
2021/04/28 04:31:38;;;;;;;10.95;7.15;;;11.00;91.90;;;;;;1782351;80;21590;-68
2021/04/28 04:34:26;;;;;;;9.70;6.75;;;11.00;91.20;;;;;;1787689;80;21279;-68
2021/04/28 04:37:12;;;;;;;10.48;6.67;;;10.90;92.30;;;;;;1788040;80;21540;-68
2021/04/28 04:40:00;;;;;;;10.68;6.80;;;10.90;92.40;;;;;;1767411;80;21146;-69
2021/04/28 04:42:30;;;;;;;10.03;6.70;;;10.80;93.50;;;;;;1754967;80;21114;-68
2021/04/28 04:44:59;;;;;;;10.72;7.00;;;10.80;92.10;;;;;;1785155;80;21145;-68
2021/04/28 04:47:27;;;;;;;9.95;6.33;;;10.80;93.30;;;;;;1787680;80;21276;-68
2021/04/28 04:49:55;;;;;;;9.83;6.47;;;10.80;91.90;;;;;;1785702;80;21152;-67
2021/04/28 04:52:22;;;;;;;12.20;7.25;;;10.90;92.50;;;;;;1760658;80;21587;-67
2021/04/28 04:54:50;;;;;;;12.30;7.45;;;10.80;93.30;;;;;;1764792;80;21126;-67
2021/04/28 04:57:17;;;;;;;11.68;7.20;;;10.70;93.70;;;;;;1760713;80;21517;-69
2021/04/28 04:59:45;;;;;;;9.40;6.50;;;10.80;93.90;;;;;;1756629;81;21141;-69
2021/04/28 05:02:13;;;;;;;10.50;6.92;;;10.80;92.90;;;;;;1756496;81;21141;-69
2021/04/28 05:04:40;;;;;;;10.28;6.78;;;10.70;93.90;;;;;;1756612;82;21607;-69
2021/04/28 05:07:08;;;;;;;10.80;7.15;;;10.70;94.60;;;;;;1776802;80;21145;-69
2021/04/28 05:09:36;;;;;;;14.50;8.00;;;10.70;95.40;;;;;;1785209;80;21595;-69
2021/04/28 05:12:05;;;;;;;10.25;6.70;;;10.60;95.20;;;;;;1777429;80;21110;-69
2021/04/28 05:14:33;;;;;;;9.38;5.92;;;10.70;93.10;;;;;;1784697;80;21579;-69
2021/04/28 05:17:00;;;;;;;11.28;6.75;;;10.80;92.00;;;;;;1784693;80;21109;-70
2021/04/28 05:19:29;;;;;;;10.80;6.40;;;10.70;92.90;;;;;;1784707;80;21157;-70
2021/04/28 05:21:57;;;;;;;9.50;6.00;;;10.60;92.60;;;;;;1784791;80;21327;-69
2021/04/28 05:24:26;;;;;;;8.55;5.92;;;10.60;94.00;;;;;;1763724;80;21595;-70
2021/04/28 05:27:03;;;;;;;9.38;6.37;;;10.40;93.30;;;;;;1732300;82;21170;-69
2021/04/28 05:29:31;;;;;;;9.95;6.50;;;10.40;96.30;;;;;;1733293;83;21571;-70
2021/04/28 05:31:59;;;;;;;9.65;6.50;;;10.30;99.70;;;;;;1712687;83;21181;-69
2021/04/28 05:34:28;;;;;;;9.15;6.50;;;10.20;99.40;;;;;;1733339;83;21169;-69
2021/04/28 05:36:56;;;;;;;9.55;6.00;;;10.30;97.80;;;;;;1753741;80;21133;-68
2021/04/28 05:39:23;;;;;;;8.83;5.60;;;10.30;99.40;;;;;;1766615;80;21120;-68
2021/04/28 05:41:52;;;;;;;11.57;6.78;;;10.20;97.70;;;;;;1765539;80;21566;-67
2021/04/28 05:44:20;;;;;;;9.80;6.08;;;10.30;97.70;;;;;;1766960;80;21165;-68
2021/04/28 05:46:48;;;;;;;10.38;6.08;;;10.40;96.00;;;;;;1784873;80;21280;-67
2021/04/28 05:49:15;;;;;;;8.33;5.72;;;10.40;96.10;;;;;;1784839;80;21149;-67
2021/04/28 05:51:46;;;;;;;9.20;5.65;;;10.40;97.10;;;;;;1752285;80;21125;-67
2021/04/28 05:54:13;;;;;;;8.95;5.50;;;10.40;96.80;;;;;;1735832;80;21121;-66
2021/04/28 05:56:42;;;;;;;8.18;5.53;;;10.50;95.90;;;;;;1764016;80;21122;-66
2021/04/28 05:59:09;;;;;;;8.83;5.95;;;10.80;93.70;;;;;;1769033;80;21117;-70
2021/04/28 06:01:37;;;;;;;7.55;5.70;;;10.80;94.40;;;;;;1784882;80;21279;-71
2021/04/28 06:04:07;;;;;;;9.45;6.12;;;10.70;92.80;;;;;;1759576;80;21109;-70
2021/04/28 06:06:35;;;;;;;8.80;6.20;;;10.60;95.00;;;;;;1768385;80;21133;-70
2021/04/28 06:09:04;;;;;;;8.50;5.83;;;10.60;96.20;;;;;;1768069;80;21566;-70
2021/04/28 06:11:32;;;;;;;10.38;6.25;;;10.70;97.20;;;;;;1758224;80;21165;-70
2021/04/28 06:14:00;;;;;;;9.85;6.22;;;10.60;98.90;;;;;;1758554;80;21194;-70
2021/04/28 06:16:27;;;;;;;8.95;6.50;;;10.60;98.80;;;;;;1728271;82;21610;-69
2021/04/28 06:18:55;;;;;;;11.12;6.47;;;10.60;99.70;;;;;;1770394;80;21098;-70
2021/04/28 06:21:23;;;;;;;9.63;6.33;;;10.50;94.40;;;;;;1770138;80;21339;-71
2021/04/28 06:23:51;;;;;;;9.43;6.28;;;10.60;96.00;;;;;;1761562;80;21125;-71
2021/04/28 06:26:19;;;;;;;11.15;7.20;;;10.60;96.10;;;;;;1728012;82;21568;-69
2021/04/28 06:28:47;;;;;;;9.60;6.42;;;10.60;94.30;;;;;;1762580;80;21136;-70
2021/04/28 06:31:15;;;;;;;9.80;6.10;;;10.60;96.00;;;;;;1757993;80;21126;-68
2021/04/28 06:33:43;;;;;;;8.20;5.72;;;10.50;97.10;;;;;;1766741;80;21346;-71
2021/04/28 06:36:11;;;;;;;8.45;5.67;;;10.60;96.60;;;;;;1754051;81;21158;-72
2021/04/28 06:38:40;;;;;;;7.70;5.37;;;10.60;99.00;;;;;;1757567;80;21110;-69
2021/04/28 06:41:08;;;;;;;7.87;5.20;;;10.60;96.30;;;;;;1762479;80;21149;-69
2021/04/28 06:43:36;;;;;;;9.43;5.28;;;10.60;99.30;;;;;;1758176;80;21152;-73
2021/04/28 06:46:07;;;;;;;7.15;4.90;;;10.70;97.10;;;;;;1759666;80;21106;-69
2021/04/28 06:48:35;;;;;;;7.42;5.35;;;10.70;94.90;;;;;;1767862;80;21176;-68
2021/04/28 06:51:02;;;;;;;7.92;4.95;;;10.80;94.80;;;;;;1763176;80;21137;-72
2021/04/28 06:53:30;;;;;;;8.98;5.33;;;10.70;95.90;;;;;;1769595;80;21183;-69
2021/04/28 06:55:58;;;;;;;9.28;5.22;;;10.80;95.20;;;;;;1762320;80;21145;-72
2021/04/28 06:58:29;;;;;;;8.00;5.20;;;10.80;95.20;;;;;;1766805;80;21137;-70
2021/04/28 07:00:57;;;;;;;7.80;5.25;;;10.80;92.40;;;;;;1770747;80;21129;-71
2021/04/28 07:03:25;;;;;;;8.00;5.10;;;10.70;92.00;;;;;;1763734;80;21102;-69
2021/04/28 07:05:53;;;;;;;7.42;4.67;;;10.80;92.20;;;;;;1762775;80;21168;-70
2021/04/28 07:08:21;;;;;;;8.60;5.62;;;10.70;92.90;;;;;;1761158;81;21134;-68
2021/04/28 07:10:49;;;;;;;7.70;5.42;;;10.70;92.80;;;;;;1757587;81;21161;-70
2021/04/28 07:13:19;;;;;;;8.90;5.95;;;10.70;96.20;;;;;;1779004;80;21161;-70
2021/04/28 07:15:47;;;;;;;8.33;5.80;;;10.70;97.00;;;;;;1763894;81;21271;-70
2021/04/28 07:18:15;;;;;;;8.48;5.40;;;10.70;95.60;;;;;;1756899;81;21141;-70
2021/04/28 07:20:42;;;;;;;8.30;5.72;;;10.80;93.30;;;;;;1748906;82;21328;-72
2021/04/28 07:23:10;;;;;;;8.13;5.67;;;10.80;95.40;;;;;;1749016;82;21161;-72
2021/04/28 07:25:38;;;;;;;8.03;5.40;;;11.00;93.40;;;;;;1748527;81;21153;-72
2021/04/28 07:28:06;;;;;;;7.62;5.20;;;11.20;92.00;;;;;;1748787;82;21349;-72
2021/04/28 07:30:34;;;;;;;7.62;5.67;;;11.40;91.00;;;;;;1748771;82;21291;-71
2021/04/28 07:33:04;;;;;;;8.83;5.37;;;11.40;91.00;;;;;;1748538;82;21157;-71
2021/04/28 07:35:32;;;;;;;8.48;5.53;;;11.60;90.30;;;;;;1756965;81;21259;-73
2021/04/28 07:38:00;;;;;;;7.70;5.03;;;11.90;90.90;;;;;;1764658;81;21307;-74
2021/04/28 07:40:30;;;;;;;10.43;6.17;;;11.90;90.20;;;;;;1778973;80;21264;-74
2021/04/28 07:42:58;;;;;;;8.98;5.95;;;11.80;90.60;;;;;;1770437;81;21129;-72
2021/04/28 07:45:26;;;;;;;9.45;6.15;;;12.00;91.40;;;;;;1763752;80;21094;-72
2021/04/28 07:47:53;;;;;;;8.65;6.00;;;12.20;88.20;;;;;;1765322;81;21283;-72
2021/04/28 07:50:21;;;;;;;8.08;5.42;;;12.30;87.80;;;;;;1761228;81;21168;-72
2021/04/28 07:52:49;;;;;;;7.50;5.20;;;12.40;84.40;;;;;;1761350;81;21141;-69
2021/04/28 07:55:18;;;;;;;8.10;5.75;;;12.50;82.20;;;;;;1761123;81;21264;-68
2021/04/28 07:57:46;;;;;;;8.50;5.58;;;12.60;84.70;;;;;;1760454;81;21168;-70
2021/04/28 08:00:16;;;;;;;8.63;5.30;;;12.60;82.80;;;;;;1748292;82;21149;-70
2021/04/28 08:02:44;;;;;;;7.20;5.20;;;12.70;82.10;;;;;;1759241;81;21560;-70
2021/04/28 08:05:12;;;;;;;9.53;5.72;;;12.70;85.30;;;;;;1779228;80;21142;-69
2021/04/28 08:07:40;;;;;;;7.85;5.47;;;12.80;85.60;;;;;;1770659;81;21163;-69
2021/04/28 08:10:11;;;;;;;9.18;5.58;;;12.90;85.80;;;;;;1748501;81;21162;-69
2021/04/28 08:12:39;;;;;;;7.80;5.37;;;13.00;87.70;;;;;;1748635;81;21272;-68
2021/04/28 08:15:09;;;;;;;7.78;5.67;;;13.10;82.30;;;;;;1748590;81;21252;-72
2021/04/28 08:17:39;;;;;;;7.58;5.22;;;13.20;82.00;;;;;;1748681;81;21691;-72
2021/04/28 08:20:11;;;;;;;8.25;5.78;;;13.20;81.20;;;;;;1748272;82;21560;-71
2021/04/28 08:22:40;;;;;;;8.90;5.67;;;13.20;81.90;;;;;;1748425;82;21223;-69
2021/04/28 08:25:12;;;;;;;10.08;5.67;;;13.20;80.40;;;;;;1748670;81;21162;-69
2021/04/28 08:27:40;;;;;;;10.13;5.80;;;13.20;81.50;;;;;;1748405;82;21540;-69
2021/04/28 08:30:12;;;;;;;8.05;5.70;;;13.90;80.60;;;;;;1752868;81;21141;-68
2021/04/28 08:32:40;;;;;;;7.87;5.83;;;14.30;77.40;;;;;;1761800;81;21271;-66
2021/04/28 08:35:16;;;;;;;10.45;7.37;;;14.60;76.10;;;;;;1770870;80;21276;-70
2021/04/28 08:37:45;;;;;;;12.30;9.30;;;14.90;76.30;;;;;;1775486;81;21135;-66
2021/04/28 08:40:16;;;;;;;11.65;7.30;;;15.40;73.80;;;;;;1748670;82;21276;-68
2021/04/28 08:42:44;;;;;;;11.18;6.62;;;15.50;74.30;;;;;;1748689;82;21166;-69
2021/04/28 08:45:14;;;;;;;8.40;5.80;;;15.50;72.20;;;;;;1748741;81;21193;-70
2021/04/28 08:47:43;;;;;;;11.97;7.12;;;15.60;72.30;;;;;;1748107;80;21172;-68
2021/04/28 08:50:14;;;;;;;6.47;4.92;;;15.80;71.40;;;;;;1757042;81;21560;-69
2021/04/28 08:52:42;;;;;;;7.00;5.53;;;15.90;69.40;;;;;;1746853;82;21137;-69
2021/04/28 08:55:12;;;;;;;8.65;5.62;;;15.80;69.20;;;;;;1747021;81;21150;-68
2021/04/28 08:57:41;;;;;;;8.05;5.80;;;15.90;68.80;;;;;;1751355;81;21154;-70
2021/04/28 09:00:10;;;;;;;9.13;5.17;;;16.10;69.10;;;;;;1746928;82;21150;-67
2021/04/28 09:02:54;;;;;;;6.78;5.03;;;16.00;68.80;;;;;;1746589;82;21154;-66
2021/04/28 09:05:23;;;;;;;9.55;5.78;;;15.80;67.60;;;;;;1746801;82;21206;-65
2021/04/28 09:07:51;;;;;;;7.37;5.42;;;15.60;68.30;;;;;;1748015;81;21141;-67
2021/04/28 09:10:27;;;;;;;8.78;6.28;;;15.50;69.50;;;;;;1752872;81;21125;-67
2021/04/28 09:13:05;;;;;;;7.42;5.22;;;15.30;69.30;;;;;;1761140;81;21165;-64
2021/04/28 09:15:46;;;;;;;8.28;5.70;;;15.20;70.60;;;;;;1777296;81;21231;-64
2021/04/28 09:18:35;;;;;;;8.60;5.90;;;15.10;72.50;;;;;;1762894;81;21260;-66
2021/04/28 09:21:16;;;;;;;7.75;5.40;;;14.90;71.20;;;;;;1756273;81;21295;-66
2021/04/28 09:24:25;;;;;;;9.25;5.42;;;14.70;72.80;;;;;;1762370;81;21554;-64
2021/04/28 09:27:29;;;;;;;7.55;5.28;;;14.70;73.30;;;;;;1756630;81;21122;-67
2021/04/28 09:30:24;;;;;;;7.40;5.37;;;14.90;72.60;;;;;;1760773;81;21145;-66
2021/04/28 09:33:04;;;;;;;6.75;4.58;;;14.90;72.80;;;;;;1726190;82;21149;-66
2021/04/28 09:35:32;;;;;;;7.87;5.25;;;14.90;72.00;;;;;;1756648;81;21141;-67
2021/04/28 09:38:02;;;;;;;7.75;5.12;;;14.90;72.30;;;;;;1761121;81;21145;-69
2021/04/28 09:40:56;;;;;;;15.28;9.23;;;14.90;71.70;;;;;;1759685;81;21138;-67
2021/04/28 09:43:24;;;;;;;7.12;5.17;;;14.90;72.90;;;;;;1752169;81;21106;-67
2021/04/28 09:45:56;;;;;;;7.28;4.95;;;15.00;72.30;;;;;;1755394;80;21118;-65
2021/04/28 09:48:25;;;;;;;9.45;5.47;;;15.00;72.10;;;;;;1761068;81;21117;-66
2021/04/28 09:51:12;;;;;;;6.95;4.72;;;15.10;72.50;;;;;;1760908;81;21264;-66
2021/04/28 09:53:40;;;;;;;;;;;15.00;71.90;;;;;;1759243;81;21121;-66
2021/04/28 09:56:17;;;;;;;7.85;5.00;;;15.00;72.00;;;;;;1760995;81;20518;-67
2021/04/28 09:58:53;;;;;;;6.10;4.05;;;15.00;73.20;;;;;;1760148;80;21162;-67
2021/04/28 10:01:37;;;;;;;5.87;3.98;;;15.10;74.30;;;;;;1760670;81;21263;-67
2021/04/28 10:04:08;;;;;;;11.18;4.55;;;15.10;73.60;;;;;;1760591;81;21133;-67
2021/04/28 10:06:51;;;;;;;6.25;4.25;;;15.10;72.80;;;;;;1760763;81;22418;-67
2021/04/28 10:09:34;;;;;;;8.60;4.47;;;15.20;74.40;;;;;;1764946;81;21114;-66
2021/04/28 10:12:09;;;;;;;8.98;4.50;;;15.20;71.50;;;;;;1760881;81;21333;-66
2021/04/28 10:14:38;;;;;;;6.62;4.00;;;15.10;71.10;;;;;;1762770;81;21795;-67
2021/04/28 10:17:09;;;;;;;9.15;5.03;;;15.30;72.60;;;;;;1760138;81;21191;-66
2021/04/28 10:19:39;;;;;;;8.00;4.35;;;15.50;71.70;;;;;;1760555;81;22197;-67
2021/04/28 10:22:19;;;;;;;6.10;4.37;;;15.60;71.00;;;;;;1765031;81;21207;-66
2021/04/28 10:24:52;;;;;;;8.45;4.62;;;15.60;71.20;;;;;;1760600;81;21180;-67
2021/04/28 10:27:21;;;;;;;8.23;4.75;;;15.60;72.00;;;;;;1755322;81;21150;-66
2021/04/28 10:29:52;;;;;;;10.35;6.05;;;15.60;72.30;;;;;;1757544;81;21171;-66
2021/04/28 10:32:23;;;;;;;7.75;4.60;;;15.50;72.00;;;;;;1754278;81;21146;-66
2021/04/28 10:35:14;;;;;;;5.67;3.92;;;15.60;72.00;;;;;;1752315;81;21256;-66
2021/04/28 10:37:46;;;;;;;7.90;4.17;;;15.50;70.20;;;;;;1760553;81;21213;-66
2021/04/28 10:40:18;;;;;;;5.72;3.98;;;15.20;70.30;;;;;;1763552;81;21130;-67
2021/04/28 10:42:48;;;;;;;5.87;3.70;;;15.20;71.90;;;;;;1760378;80;21265;-67
2021/04/28 10:45:37;;;;;;;5.55;3.75;;;15.20;72.30;;;;;;1757735;81;21134;-66
2021/04/28 10:48:01;;;;;;;8.83;5.62;;;15.10;72.90;;;;;;1760243;81;21973;-66
2021/04/28 10:50:45;;;;;;;7.78;4.40;;;14.90;70.90;;;;;;1761673;80;21571;-66
2021/04/28 10:53:23;;;;;;;6.92;4.10;;;14.90;72.30;;;;;;1763363;81;21160;-66
2021/04/28 10:56:14;;;;;;;5.85;3.52;;;14.70;71.00;;;;;;1760666;81;21098;-65
2021/04/28 10:58:47;;;;;;;6.35;3.47;;;14.70;73.10;;;;;;1748178;82;21157;-68
2021/04/28 11:01:20;;;;;;;4.85;3.40;;;14.70;73.30;;;;;;1761225;81;21531;-66
2021/04/28 11:03:56;;;;;;;5.33;3.50;;;14.70;71.70;;;;;;1751789;81;21129;-67
2021/04/28 11:06:30;;;;;;;6.62;3.30;;;14.60;73.20;;;;;;1759460;81;21710;-66
2021/04/28 11:09:04;;;;;;;5.90;3.75;;;14.70;74.50;;;;;;1763450;80;21283;-67
2021/04/28 11:11:41;;;;;;;5.12;2.70;;;14.70;72.60;;;;;;1760234;81;21536;-66
2021/04/28 11:14:24;;;;;;;4.75;3.12;;;14.60;73.70;;;;;;1760639;81;21177;-66
2021/04/28 11:17:19;;;;;;;4.78;3.12;;;14.70;74.00;;;;;;1758958;80;21121;-66
2021/04/28 11:19:51;;;;;;;4.42;2.85;;;14.80;73.00;;;;;;1761216;81;21694;-68
2021/04/28 11:22:28;;;;;;;4.70;3.30;;;15.00;71.20;;;;;;1763292;80;21525;-67
2021/04/28 11:25:15;;;;;;;4.15;2.77;;;14.90;70.60;;;;;;1763320;81;21277;-69
2021/04/28 11:27:53;;;;;;;7.08;3.17;;;15.00;70.60;;;;;;1764803;81;21135;-67
2021/04/28 11:30:32;;;;;;;4.90;2.80;;;14.90;71.10;;;;;;1769122;81;21635;-68
2021/04/28 11:33:31;;;;;;;6.00;3.00;;;14.90;73.30;;;;;;1779146;81;21304;-68
2021/04/28 11:36:06;;;;;;;4.50;2.62;;;15.00;70.30;;;;;;1779209;80;21133;-67
2021/04/28 11:38:39;;;;;;;5.12;2.85;;;15.00;70.40;;;;;;1752528;81;21119;-68
2021/04/28 11:41:14;;;;;;;3.75;2.50;;;15.10;70.00;;;;;;1760287;81;21158;-68
2021/04/28 11:43:57;;;;;;;4.87;2.60;;;15.10;70.30;;;;;;1774787;81;21074;-67
2021/04/28 11:46:29;;;;;;;5.25;3.20;;;15.20;69.80;;;;;;1756027;80;21102;-67
2021/04/28 11:49:02;;;;;;;5.17;3.00;;;15.20;69.20;;;;;;1750930;80;21151;-66
2021/04/28 11:51:35;;;;;;;4.40;3.02;;;15.20;69.10;;;;;;1748483;82;21146;-67
2021/04/28 11:54:10;;;;;;;4.83;2.65;;;15.30;69.50;;;;;;1748652;82;21668;-67
2021/04/28 11:56:46;;;;;;;4.00;2.60;;;15.40;69.10;;;;;;1775225;81;21259;-66
2021/04/28 11:59:26;;;;;;;5.78;2.87;;;15.30;69.20;;;;;;1779373;81;21149;-67
2021/04/28 12:02:00;;;;;;;7.08;2.70;;;15.40;69.00;;;;;;1779142;80;21694;-68
2021/04/28 12:04:50;;;;;;;4.20;2.50;;;15.50;69.00;;;;;;1774586;81;21705;-67
2021/04/28 12:07:19;;;;;;;4.12;2.75;;;15.50;67.90;;;;;;1760691;80;21174;-67
2021/04/28 12:09:51;;;;;;;4.95;2.33;;;15.60;67.50;;;;;;1776906;80;21124;-68
2021/04/28 12:12:32;;;;;;;3.62;2.17;;;15.50;68.70;;;;;;1773937;81;21268;-68
2021/04/28 12:15:27;;;;;;;4.42;2.42;;;15.50;66.60;;;;;;1779385;81;21133;-66
2021/04/28 12:17:55;;;;;;;3.67;2.15;;;15.60;67.90;;;;;;1689060;85;21184;-66
2021/04/28 12:20:25;;;;;;;3.90;2.37;;;15.60;66.10;;;;;;1693670;83;21453;-66
2021/04/28 12:22:54;;;;;;;4.45;2.35;;;15.70;67.70;;;;;;1689978;84;21191;-67
2021/04/28 12:25:23;;;;;;;3.98;2.35;;;15.80;65.60;;;;;;1700344;83;21138;-66
2021/04/28 12:27:51;;;;;;;4.45;2.00;;;15.80;65.10;;;;;;1686244;83;21181;-66
2021/04/28 12:30:24;;;;;;;3.65;2.00;;;15.90;65.10;;;;;;1690943;83;21126;-66
2021/04/28 12:32:56;;;;;;;4.10;1.92;;;15.90;66.60;;;;;;1690272;83;21188;-66
2021/04/28 12:35:29;;;;;;;3.22;2.22;;;16.00;65.10;;;;;;1692938;83;21116;-66
2021/04/28 12:38:04;;;;;;;4.58;2.00;;;16.10;64.30;;;;;;1697790;83;21130;-68
2021/04/28 12:40:58;;;;;;;4.50;2.92;;;16.10;65.30;;;;;;1689177;83;21203;-68
2021/04/28 12:43:39;;;;;;;3.42;1.80;;;16.10;65.70;;;;;;1681984;83;21656;-67
2021/04/28 12:46:10;;;;;;;3.77;1.70;;;16.10;64.60;;;;;;1677878;84;21593;-66
2021/04/28 12:48:58;;;;;;;2.40;1.20;;;16.00;64.00;;;;;;1682373;85;21189;-68
2021/04/28 12:51:29;;;;;;;2.58;1.60;;;16.10;63.50;;;;;;1670577;84;21115;-67
2021/04/28 12:53:58;;;;;;;2.75;1.42;;;16.20;64.40;;;;;;1689668;84;21162;-68
2021/04/28 12:56:44;;;;;;;3.75;1.80;;;16.30;63.50;;;;;;1687908;85;21162;-67
2021/04/28 12:59:23;;;;;;;7.50;1.90;;;16.40;62.50;;;;;;1684411;85;21571;-67
2021/04/28 13:02:01;;;;;;;2.90;1.82;;;16.50;64.60;;;;;;1678406;85;21198;-69
2021/04/28 13:04:31;;;;;;;3.95;1.77;;;16.50;64.40;;;;;;1688034;84;21769;-70
2021/04/28 13:07:24;;;;;;;3.20;2.00;;;16.50;63.30;;;;;;1689475;85;21186;-68
2021/04/28 13:09:54;;;;;;;6.72;4.37;;;16.60;63.60;;;;;;1681030;84;21151;-68